Terminal Aerodrome Forecast
Issued by NWS

Home | Current Version | Previous Version | Text Only | Print | Product List | Glossary On
Versions: 1 2 3 4 5 6 7 8 9 10 11 12
489
FTUS45 KABQ 272333
TAFSAF
TAF
KSAF 272333Z 2800/2824 28015G25KT P6SM VCSH BKN090
     FM280200 32012KT P6SM SCT100
     FM280600 36007KT P6SM FEW100
     FM281700 23007KT P6SM SKC
     FM282000 23012KT P6SM SCT090=

USA.gov is the U.S. government's official web portal to all federal, state and local government web resources and services.